(°F)
49°
49°
49°
48°
48°
48°
48°
(°F)
44°
43°
43°
43°
43°
43°
43°
SSE
SSE
SSE
SSE
SSE
SSE
SSE
(mph)
5-11
4-10
4-10
4-11
4-12
4-11
4-11
(in)
0
0
0
0
0
0
0
(%)
2
2
2
1
1
1
0

Sun elevation

/ -61.8°
sun-icon
UV 3
07:20
17:17
Waxing crescent moon (58°)
11:46
22:14

METAR for Sedona (KSEZ)

Time Conditions Temperature/
Dewpoint
Wind Visibility Weather Clouds Pressure Change Raw
VFR 50°F / 30.2°F 200º 4kt >10km - Broken Clouds 4800ft
Broken Clouds 6000ft
- KSEZ 090455Z AUTO 20004KT 10SM BKN048 BKN060 10/M01 A3003 RMK AO2
VFR 50°F / 30.2°F 200º 6kt >10km - Broken Clouds 5000ft
Broken Clouds 6000ft
- KSEZ 090435Z AUTO 20006KT 10SM BKN050 BKN060 10/M01 A3003 RMK AO2
VFR 50°F / 30.2°F 200º 6kt >10km - Overcast 5000ft - KSEZ 090355Z AUTO 20006KT 10SM OVC050 10/M01 A3003 RMK AO2
VFR 51.8°F / 30.2°F 200º 8kt >10km - Overcast 5000ft - KSEZ 090255Z AUTO 20008KT 10SM OVC050 11/M01 A3002 RMK AO2
VFR 51.8°F / 30.2°F 210º 9kt >10km - Broken Clouds 5000ft
Overcast 5500ft
- KSEZ 090235Z AUTO 21009KT 10SM BKN050 OVC055 11/M01 A3002 RMK AO2
VFR 51.8°F / 30.2°F 200º 7kt >10km - Overcast 6000ft - KSEZ 090135Z AUTO 20007KT 10SM OVC060 11/M01 A3002 RMK AO2
VFR 53.6°F / 30.2°F 200º 8kt >10km - Overcast 6000ft - KSEZ 090115Z AUTO 20008KT 10SM OVC060 12/M01 A3001 RMK AO2
VFR 53.6°F / 28.4°F 190º 8kt >10km - Overcast 6000ft - KSEZ 090055Z AUTO 19008KT 10SM OVC060 12/M02 A3000 RMK AO2
VFR 53.6°F / 28.4°F 190º 11kt Gust 18kt >10km - Overcast 5000ft - KSEZ 090035Z AUTO 19011G18KT 10SM OVC050 12/M02 A3000 RMK AO2
VFR 53.6°F / 30.2°F 180º 12kt Gust 15kt >10km - Overcast 5000ft - KSEZ 090015Z AUTO 18012G15KT 10SM OVC050 12/M01 A3000 RMK AO2
VFR 53.6°F / 30.2°F 190º variable 160º to 220º 10kt Gust 18kt >10km - Broken Clouds 5000ft
Overcast 7000ft
- KSEZ 082355Z AUTO 19010G18KT 160V220 10SM BKN050 OVC070 12/M01 A3000 RMK AO2
VFR 53.6°F / 28.4°F 190º 11kt Gust 18kt >10km - Scattered Clouds 5000ft
Overcast 7000ft
- KSEZ 082335Z AUTO 19011G18KT 10SM SCT050 OVC070 12/M02 A2999 RMK AO2
VFR 55.4°F / 28.4°F 190º 12kt Gust 16kt >10km - Broken Clouds 7000ft - KSEZ 082315Z AUTO 19012G16KT 10SM BKN070 13/M02 A2998 RMK AO2
VFR 55.4°F / 30.2°F 190º 16kt Gust 20kt >10km - Scattered Clouds 7000ft - KSEZ 082255Z AUTO 19016G20KT 10SM SCT070 13/M01 A2998 RMK AO2
VFR 59°F / 30.2°F 170º variable 150º to 210º 11kt Gust 16kt >10km - Scattered Clouds 5000ft
Broken Clouds 7000ft
- KSEZ 082235Z AUTO 17011G16KT 150V210 10SM SCT050 BKN070 15/M01 A2999 RMK AO2
VFR 59°F / 30.2°F 210º 11kt Gust 14kt >10km - Overcast 5000ft - KSEZ 082215Z AUTO 21011G14KT 10SM OVC050 15/M01 A3000 RMK AO2
VFR 55.4°F / 30.2°F 150º 8kt Gust 14kt >10km - Overcast 5000ft - KSEZ 082155Z AUTO 15008G14KT 10SM OVC050 13/M01 A3001 RMK AO2
VFR 55.4°F / 32°F 190º 12kt Gust 18kt >10km - Overcast 5000ft - KSEZ 082135Z AUTO 19012G18KT 10SM OVC050 13/00 A3002 RMK AO2
VFR 55.4°F / 32°F 190º 9kt >10km - Broken Clouds 5000ft
Overcast 8000ft
- KSEZ 082115Z AUTO 19009KT 10SM BKN050 OVC080 13/00 A3003 RMK AO2
VFR 53.6°F / 32°F 190º 9kt Gust 15kt >10km - Overcast 5000ft - KSEZ 082055Z AUTO 19009G15KT 10SM OVC050 12/00 A3004 RMK AO2
VFR 55.4°F / 30.2°F 170º 11kt Gust 17kt >10km - Overcast 5000ft - KSEZ 082035Z AUTO 17011G17KT 10SM OVC050 13/M01 A3005 RMK AO2
VFR 53.6°F / 30.2°F 200º 3kt Gust 15kt >10km - Scattered Clouds 4300ft
Overcast 5000ft
- KSEZ 082015Z AUTO 20003G15KT 10SM SCT043 OVC050 12/M01 A3007 RMK AO2
VFR 53.6°F / 28.4°F 200º variable 160º to 220º 8kt >10km - Scattered Clouds 4300ft
Overcast 5000ft
- KSEZ 081955Z AUTO 20008KT 160V220 10SM SCT043 OVC050 12/M02 A3007 RMK AO2
VFR 53.6°F / 28.4°F 190º variable 150º to 220º 8kt >10km - Overcast 6000ft - KSEZ 081935Z AUTO 19008KT 150V220 10SM OVC060 12/M02 A3007 RMK AO2

VFR

50°F / 30.2°F

[More]
Wind 200º 4kt
Visibility >10km
Weather -
Clouds Broken Clouds 4800ft
Broken Clouds 6000ft
Pressure
Change -
Raw KSEZ 090455Z AUTO 20004KT 10SM BKN048 BKN060 10/M01 A3003 RMK AO2

VFR

50°F / 30.2°F

[More]
Wind 200º 6kt
Visibility >10km
Weather -
Clouds Broken Clouds 5000ft
Broken Clouds 6000ft
Pressure
Change -
Raw KSEZ 090435Z AUTO 20006KT 10SM BKN050 BKN060 10/M01 A3003 RMK AO2

VFR

50°F / 30.2°F

[More]
Wind 200º 6kt
Visibility >10km
Weather -
Clouds Overcast 5000ft
Pressure
Change -
Raw KSEZ 090355Z AUTO 20006KT 10SM OVC050 10/M01 A3003 RMK AO2

VFR

51.8°F / 30.2°F

[More]
Wind 200º 8kt
Visibility >10km
Weather -
Clouds Overcast 5000ft
Pressure
Change -
Raw KSEZ 090255Z AUTO 20008KT 10SM OVC050 11/M01 A3002 RMK AO2

VFR

51.8°F / 30.2°F

[More]
Wind 210º 9kt
Visibility >10km
Weather -
Clouds Broken Clouds 5000ft
Overcast 5500ft
Pressure
Change -
Raw KSEZ 090235Z AUTO 21009KT 10SM BKN050 OVC055 11/M01 A3002 RMK AO2

VFR

51.8°F / 30.2°F

[More]
Wind 200º 7kt
Visibility >10km
Weather -
Clouds Overcast 6000ft
Pressure
Change -
Raw KSEZ 090135Z AUTO 20007KT 10SM OVC060 11/M01 A3002 RMK AO2

VFR

53.6°F / 30.2°F

[More]
Wind 200º 8kt
Visibility >10km
Weather -
Clouds Overcast 6000ft
Pressure
Change -
Raw KSEZ 090115Z AUTO 20008KT 10SM OVC060 12/M01 A3001 RMK AO2

VFR

53.6°F / 28.4°F

[More]
Wind 190º 8kt
Visibility >10km
Weather -
Clouds Overcast 6000ft
Pressure
Change -
Raw KSEZ 090055Z AUTO 19008KT 10SM OVC060 12/M02 A3000 RMK AO2

VFR

53.6°F / 28.4°F

[More]
Wind 190º 11kt Gust 18kt
Visibility >10km
Weather -
Clouds Overcast 5000ft
Pressure
Change -
Raw KSEZ 090035Z AUTO 19011G18KT 10SM OVC050 12/M02 A3000 RMK AO2

VFR

53.6°F / 30.2°F

[More]
Wind 180º 12kt Gust 15kt
Visibility >10km
Weather -
Clouds Overcast 5000ft
Pressure
Change -
Raw KSEZ 090015Z AUTO 18012G15KT 10SM OVC050 12/M01 A3000 RMK AO2

VFR

53.6°F / 30.2°F

[More]
Wind 190º variable 160º to 220º 10kt Gust 18kt
Visibility >10km
Weather -
Clouds Broken Clouds 5000ft
Overcast 7000ft
Pressure
Change -
Raw KSEZ 082355Z AUTO 19010G18KT 160V220 10SM BKN050 OVC070 12/M01 A3000 RMK AO2

VFR

53.6°F / 28.4°F

[More]
Wind 190º 11kt Gust 18kt
Visibility >10km
Weather -
Clouds Scattered Clouds 5000ft
Overcast 7000ft
Pressure
Change -
Raw KSEZ 082335Z AUTO 19011G18KT 10SM SCT050 OVC070 12/M02 A2999 RMK AO2

VFR

55.4°F / 28.4°F

[More]
Wind 190º 12kt Gust 16kt
Visibility >10km
Weather -
Clouds Broken Clouds 7000ft
Pressure
Change -
Raw KSEZ 082315Z AUTO 19012G16KT 10SM BKN070 13/M02 A2998 RMK AO2

VFR

55.4°F / 30.2°F

[More]
Wind 190º 16kt Gust 20kt
Visibility >10km
Weather -
Clouds Scattered Clouds 7000ft
Pressure
Change -
Raw KSEZ 082255Z AUTO 19016G20KT 10SM SCT070 13/M01 A2998 RMK AO2

VFR

59°F / 30.2°F

[More]
Wind 170º variable 150º to 210º 11kt Gust 16kt
Visibility >10km
Weather -
Clouds Scattered Clouds 5000ft
Broken Clouds 7000ft
Pressure
Change -
Raw KSEZ 082235Z AUTO 17011G16KT 150V210 10SM SCT050 BKN070 15/M01 A2999 RMK AO2

VFR

59°F / 30.2°F

[More]
Wind 210º 11kt Gust 14kt
Visibility >10km
Weather -
Clouds Overcast 5000ft
Pressure
Change -
Raw KSEZ 082215Z AUTO 21011G14KT 10SM OVC050 15/M01 A3000 RMK AO2

VFR

55.4°F / 30.2°F

[More]
Wind 150º 8kt Gust 14kt
Visibility >10km
Weather -
Clouds Overcast 5000ft
Pressure
Change -
Raw KSEZ 082155Z AUTO 15008G14KT 10SM OVC050 13/M01 A3001 RMK AO2

VFR

55.4°F / 32°F

[More]
Wind 190º 12kt Gust 18kt
Visibility >10km
Weather -
Clouds Overcast 5000ft
Pressure
Change -
Raw KSEZ 082135Z AUTO 19012G18KT 10SM OVC050 13/00 A3002 RMK AO2

VFR

55.4°F / 32°F

[More]
Wind 190º 9kt
Visibility >10km
Weather -
Clouds Broken Clouds 5000ft
Overcast 8000ft
Pressure
Change -
Raw KSEZ 082115Z AUTO 19009KT 10SM BKN050 OVC080 13/00 A3003 RMK AO2

VFR

53.6°F / 32°F

[More]
Wind 190º 9kt Gust 15kt
Visibility >10km
Weather -
Clouds Overcast 5000ft
Pressure
Change -
Raw KSEZ 082055Z AUTO 19009G15KT 10SM OVC050 12/00 A3004 RMK AO2

VFR

55.4°F / 30.2°F

[More]
Wind 170º 11kt Gust 17kt
Visibility >10km
Weather -
Clouds Overcast 5000ft
Pressure
Change -
Raw KSEZ 082035Z AUTO 17011G17KT 10SM OVC050 13/M01 A3005 RMK AO2

VFR

53.6°F / 30.2°F

[More]
Wind 200º 3kt Gust 15kt
Visibility >10km
Weather -
Clouds Scattered Clouds 4300ft
Overcast 5000ft
Pressure
Change -
Raw KSEZ 082015Z AUTO 20003G15KT 10SM SCT043 OVC050 12/M01 A3007 RMK AO2

VFR

53.6°F / 28.4°F

[More]
Wind 200º variable 160º to 220º 8kt
Visibility >10km
Weather -
Clouds Scattered Clouds 4300ft
Overcast 5000ft
Pressure
Change -
Raw KSEZ 081955Z AUTO 20008KT 160V220 10SM SCT043 OVC050 12/M02 A3007 RMK AO2

VFR

53.6°F / 28.4°F

[More]
Wind 190º variable 150º to 220º 8kt
Visibility >10km
Weather -
Clouds Overcast 6000ft
Pressure
Change -
Raw KSEZ 081935Z AUTO 19008KT 150V220 10SM OVC060 12/M02 A3007 RMK AO2

TAF for Sedona (KSEZ)

From till


From till Wind 180º 11kt. Gust 17kt. Visibility 10km or more. Scattered Clouds 5000ft. Broken Clouds 7000ft.
From till Wind 130º 7kt. Visibility 10km or more. Few Clouds 9000ft. Scattered Clouds 25000ft.
From till Wind 150º 8kt. Gust 17kt. Visibility 10km or more. Scattered Clouds 6000ft. Broken Clouds 7000ft.
From till Wind 180º 10kt. Gust 20kt. Visibility 10km or more. Scattered Clouds 4500ft. Overcast 6000ft.
From till Wind 210º 17kt. Gust 28kt. Visibility 10km or more. Light Showers Rain . Scattered Clouds 2500ft. Overcast 3000ft.

Raw: KSEZ 082320Z 0900/0924 18011G17KT P6SM SCT050 BKN070 FM090400 13007KT P6SM FEW090 SCT250 FM091200 15008G17KT P6SM SCT060 BKN070 FM091500 18010G20KT P6SM SCT045 OVC060 FM091800 21017G28KT P6SM -SHRA SCT025 OVC030

Radar and precipitation nowcast for Sedona

Drizzle
Light
Moderate
Heavy
Very Heavy
Hail

The location marker is placed on Sedona. This animation shows the precipitation radar for the last hour, as well as a 1h forecast. Drizzle or light snow fall might be invisible for the radar. Precipitation intensity is colour coded, ranging from light blue to orange.

Current satellite images for Sedona, United States of America

The location marker is placed on Sedona. [More]

The real-time satellite image combines visible light during daytime with infrared radiation during nighttime. At night, the image is not dark as infrared radiation can detect temperature differences. Unfortunately, low clouds and fog are difficult to distinguish from ground temperatures and thus can be almost invisible during the night. Meteosat satellite images for Europe are updated in real-time every 5 minutes. GOES-16/GOES-17 (North & South America) and Himawari (Asia) images update every 10 minutes.